sensor_id;sensor_type;location;lat;lon;timestamp;P1;durP1;ratioP1;P2;durP2;ratioP2
52982;SDS011;48698;45.736;13.926;2023-07-13T00:00:27;11.43;;;5.90;;
52982;SDS011;48698;45.736;13.926;2023-07-13T00:05:31;10.20;;;5.00;;
52982;SDS011;48698;45.736;13.926;2023-07-13T00:10:38;11.57;;;6.05;;
52982;SDS011;48698;45.736;13.926;2023-07-13T00:15:43;7.82;;;5.30;;
52982;SDS011;48698;45.736;13.926;2023-07-13T00:20:47;10.60;;;5.25;;
52982;SDS011;48698;45.736;13.926;2023-07-13T00:25:51;11.63;;;4.82;;
52982;SDS011;48698;45.736;13.926;2023-07-13T00:30:55;14.45;;;5.25;;
52982;SDS011;48698;45.736;13.926;2023-07-13T00:35:58;8.45;;;5.50;;
52982;SDS011;48698;45.736;13.926;2023-07-13T00:41:02;8.38;;;5.30;;
52982;SDS011;48698;45.736;13.926;2023-07-13T00:46:11;9.13;;;5.40;;
52982;SDS011;48698;45.736;13.926;2023-07-13T00:51:20;8.90;;;4.78;;
52982;SDS011;48698;45.736;13.926;2023-07-13T00:56:27;9.40;;;4.93;;
52982;SDS011;48698;45.736;13.926;2023-07-13T01:01:31;11.27;;;5.15;;
52982;SDS011;48698;45.736;13.926;2023-07-13T01:11:40;8.35;;;5.10;;
52982;SDS011;48698;45.736;13.926;2023-07-13T01:16:45;14.25;;;6.15;;
52982;SDS011;48698;45.736;13.926;2023-07-13T01:21:52;13.50;;;6.10;;
52982;SDS011;48698;45.736;13.926;2023-07-13T01:26:56;11.10;;;6.45;;
52982;SDS011;48698;45.736;13.926;2023-07-13T01:37:04;12.20;;;7.10;;
52982;SDS011;48698;45.736;13.926;2023-07-13T01:42:08;11.80;;;6.80;;
52982;SDS011;48698;45.736;13.926;2023-07-13T01:47:12;12.23;;;7.53;;
52982;SDS011;48698;45.736;13.926;2023-07-13T01:52:16;15.23;;;7.35;;
52982;SDS011;48698;45.736;13.926;2023-07-13T01:57:19;16.13;;;7.10;;
52982;SDS011;48698;45.736;13.926;2023-07-13T02:02:22;16.83;;;7.95;;
52982;SDS011;48698;45.736;13.926;2023-07-13T02:07:26;12.77;;;6.93;;
52982;SDS011;48698;45.736;13.926;2023-07-13T02:12:29;13.93;;;7.18;;
52982;SDS011;48698;45.736;13.926;2023-07-13T02:17:33;10.75;;;6.65;;
52982;SDS011;48698;45.736;13.926;2023-07-13T02:22:37;13.73;;;6.90;;
52982;SDS011;48698;45.736;13.926;2023-07-13T02:27:41;13.15;;;7.70;;
52982;SDS011;48698;45.736;13.926;2023-07-13T02:32:44;12.38;;;7.68;;
52982;SDS011;48698;45.736;13.926;2023-07-13T02:37:48;10.23;;;7.28;;
52982;SDS011;48698;45.736;13.926;2023-07-13T02:42:52;11.75;;;6.45;;
52982;SDS011;48698;45.736;13.926;2023-07-13T02:47:55;13.55;;;6.97;;
52982;SDS011;48698;45.736;13.926;2023-07-13T02:58:03;12.10;;;7.27;;
52982;SDS011;48698;45.736;13.926;2023-07-13T03:03:07;13.43;;;7.13;;
52982;SDS011;48698;45.736;13.926;2023-07-13T03:08:11;10.32;;;6.90;;
52982;SDS011;48698;45.736;13.926;2023-07-13T03:13:15;10.30;;;6.15;;
52982;SDS011;48698;45.736;13.926;2023-07-13T03:18:18;13.95;;;6.68;;
52982;SDS011;48698;45.736;13.926;2023-07-13T03:23:22;13.73;;;7.13;;
52982;SDS011;48698;45.736;13.926;2023-07-13T03:28:25;13.23;;;6.43;;
52982;SDS011;48698;45.736;13.926;2023-07-13T03:33:32;13.32;;;6.72;;
52982;SDS011;48698;45.736;13.926;2023-07-13T03:38:38;12.57;;;7.35;;
52982;SDS011;48698;45.736;13.926;2023-07-13T03:43:41;13.98;;;8.13;;
52982;SDS011;48698;45.736;13.926;2023-07-13T03:53:50;11.02;;;7.95;;
52982;SDS011;48698;45.736;13.926;2023-07-13T03:58:53;10.35;;;7.40;;
52982;SDS011;48698;45.736;13.926;2023-07-13T04:03:57;11.95;;;7.60;;
52982;SDS011;48698;45.736;13.926;2023-07-13T04:09:05;32.72;;;29.67;;
52982;SDS011;48698;45.736;13.926;2023-07-13T04:19:12;12.13;;;8.53;;
52982;SDS011;48698;45.736;13.926;2023-07-13T04:24:16;16.00;;;8.57;;
52982;SDS011;48698;45.736;13.926;2023-07-13T04:29:19;12.55;;;8.13;;
52982;SDS011;48698;45.736;13.926;2023-07-13T04:34:23;11.65;;;7.63;;
52982;SDS011;48698;45.736;13.926;2023-07-13T04:39:27;10.88;;;7.60;;
52982;SDS011;48698;45.736;13.926;2023-07-13T04:44:30;13.55;;;8.38;;
52982;SDS011;48698;45.736;13.926;2023-07-13T04:49:33;12.35;;;8.25;;
52982;SDS011;48698;45.736;13.926;2023-07-13T04:54:37;16.00;;;7.90;;
52982;SDS011;48698;45.736;13.926;2023-07-13T04:59:41;11.35;;;8.05;;
52982;SDS011;48698;45.736;13.926;2023-07-13T05:04:46;10.70;;;7.28;;
52982;SDS011;48698;45.736;13.926;2023-07-13T05:09:50;14.30;;;7.85;;
52982;SDS011;48698;45.736;13.926;2023-07-13T05:14:55;16.15;;;7.68;;
52982;SDS011;48698;45.736;13.926;2023-07-13T05:19:59;13.07;;;8.15;;
52982;SDS011;48698;45.736;13.926;2023-07-13T05:25:08;13.90;;;7.82;;
52982;SDS011;48698;45.736;13.926;2023-07-13T05:30:11;13.25;;;7.45;;
52982;SDS011;48698;45.736;13.926;2023-07-13T05:35:15;12.02;;;6.72;;
52982;SDS011;48698;45.736;13.926;2023-07-13T05:40:19;13.98;;;7.45;;
52982;SDS011;48698;45.736;13.926;2023-07-13T05:45:22;10.52;;;6.05;;
52982;SDS011;48698;45.736;13.926;2023-07-13T05:50:26;13.45;;;7.40;;
52982;SDS011;48698;45.736;13.926;2023-07-13T05:55:30;11.32;;;7.47;;
52982;SDS011;48698;45.736;13.926;2023-07-13T06:00:33;14.27;;;6.95;;
52982;SDS011;48698;45.736;13.926;2023-07-13T06:05:37;12.30;;;7.20;;
52982;SDS011;48698;45.736;13.926;2023-07-13T06:10:42;12.05;;;6.10;;
52982;SDS011;48698;45.736;13.926;2023-07-13T06:15:49;9.00;;;4.82;;
52982;SDS011;48698;45.736;13.926;2023-07-13T06:20:52;9.52;;;4.57;;
52982;SDS011;48698;45.736;13.926;2023-07-13T06:25:56;9.05;;;4.50;;
52982;SDS011;48698;45.736;13.926;2023-07-13T06:30:59;9.52;;;4.90;;
52982;SDS011;48698;45.736;13.926;2023-07-13T06:36:03;7.78;;;4.63;;
52982;SDS011;48698;45.736;13.926;2023-07-13T06:41:09;9.40;;;4.80;;
52982;SDS011;48698;45.736;13.926;2023-07-13T06:46:13;10.27;;;4.47;;
52982;SDS011;48698;45.736;13.926;2023-07-13T06:51:17;11.98;;;4.88;;
52982;SDS011;48698;45.736;13.926;2023-07-13T06:56:20;6.70;;;4.70;;
52982;SDS011;48698;45.736;13.926;2023-07-13T07:01:24;8.02;;;4.63;;
52982;SDS011;48698;45.736;13.926;2023-07-13T07:06:27;8.02;;;4.57;;
52982;SDS011;48698;45.736;13.926;2023-07-13T07:11:31;9.32;;;4.20;;
52982;SDS011;48698;45.736;13.926;2023-07-13T07:16:34;10.40;;;4.40;;
52982;SDS011;48698;45.736;13.926;2023-07-13T07:21:38;6.60;;;3.97;;
52982;SDS011;48698;45.736;13.926;2023-07-13T07:26:41;9.48;;;4.13;;
52982;SDS011;48698;45.736;13.926;2023-07-13T07:31:48;9.57;;;4.35;;
52982;SDS011;48698;45.736;13.926;2023-07-13T07:37:11;8.27;;;4.53;;
52982;SDS011;48698;45.736;13.926;2023-07-13T07:42:20;7.03;;;4.70;;
52982;SDS011;48698;45.736;13.926;2023-07-13T07:47:24;10.70;;;4.68;;
52982;SDS011;48698;45.736;13.926;2023-07-13T07:52:28;10.38;;;5.00;;
52982;SDS011;48698;45.736;13.926;2023-07-13T07:57:31;11.55;;;4.65;;
52982;SDS011;48698;45.736;13.926;2023-07-13T08:02:55;7.28;;;4.57;;
52982;SDS011;48698;45.736;13.926;2023-07-13T08:08:21;11.27;;;4.88;;
52982;SDS011;48698;45.736;13.926;2023-07-13T08:13:25;9.25;;;4.88;;
52982;SDS011;48698;45.736;13.926;2023-07-13T08:18:29;20.10;;;4.97;;
52982;SDS011;48698;45.736;13.926;2023-07-13T08:23:32;10.23;;;5.15;;
52982;SDS011;48698;45.736;13.926;2023-07-13T08:52:28;8.52;;;4.97;;
52982;SDS011;48698;45.736;13.926;2023-07-13T08:57:33;11.07;;;4.70;;
52982;SDS011;48698;45.736;13.926;2023-07-13T09:02:52;11.52;;;5.03;;
52982;SDS011;48698;45.736;13.926;2023-07-13T09:23:32;11.83;;;4.97;;
52982;SDS011;48698;45.736;13.926;2023-07-13T09:28:39;10.98;;;5.07;;
52982;SDS011;48698;45.736;13.926;2023-07-13T09:33:46;18.33;;;5.18;;
52982;SDS011;48698;45.736;13.926;2023-07-13T09:38:53;8.25;;;4.90;;
52982;SDS011;48698;45.736;13.926;2023-07-13T09:49:14;13.38;;;5.07;;
52982;SDS011;48698;45.736;13.926;2023-07-13T09:54:19;11.30;;;5.00;;
52982;SDS011;48698;45.736;13.926;2023-07-13T09:59:34;14.52;;;5.07;;
52982;SDS011;48698;45.736;13.926;2023-07-13T10:04:42;16.92;;;5.45;;
52982;SDS011;48698;45.736;13.926;2023-07-13T10:09:46;14.73;;;5.70;;
52982;SDS011;48698;45.736;13.926;2023-07-13T10:14:51;13.27;;;4.80;;
52982;SDS011;48698;45.736;13.926;2023-07-13T10:20:10;13.52;;;5.55;;
52982;SDS011;48698;45.736;13.926;2023-07-13T10:25:17;12.13;;;5.20;;
52982;SDS011;48698;45.736;13.926;2023-07-13T10:30:28;16.90;;;5.53;;
52982;SDS011;48698;45.736;13.926;2023-07-13T10:35:38;16.48;;;5.75;;
52982;SDS011;48698;45.736;13.926;2023-07-13T10:41:00;14.15;;;5.53;;
52982;SDS011;48698;45.736;13.926;2023-07-13T10:46:07;14.00;;;5.45;;
52982;SDS011;48698;45.736;13.926;2023-07-13T10:51:14;11.82;;;5.32;;
52982;SDS011;48698;45.736;13.926;2023-07-13T10:56:27;17.73;;;6.28;;
52982;SDS011;48698;45.736;13.926;2023-07-13T11:01:46;15.60;;;6.30;;
52982;SDS011;48698;45.736;13.926;2023-07-13T11:07:11;20.60;;;7.07;;
52982;SDS011;48698;45.736;13.926;2023-07-13T11:22:50;19.67;;;6.35;;
52982;SDS011;48698;45.736;13.926;2023-07-13T11:38:40;24.98;;;7.00;;
52982;SDS011;48698;45.736;13.926;2023-07-13T11:43:45;20.42;;;6.70;;
52982;SDS011;48698;45.736;13.926;2023-07-13T11:48:52;19.95;;;6.57;;
52982;SDS011;48698;45.736;13.926;2023-07-13T11:53:56;24.85;;;7.20;;
52982;SDS011;48698;45.736;13.926;2023-07-13T11:59:06;15.98;;;6.50;;
52982;SDS011;48698;45.736;13.926;2023-07-13T12:04:19;17.67;;;6.85;;
52982;SDS011;48698;45.736;13.926;2023-07-13T12:09:26;19.02;;;6.82;;
52982;SDS011;48698;45.736;13.926;2023-07-13T12:14:33;15.50;;;6.78;;
52982;SDS011;48698;45.736;13.926;2023-07-13T12:19:37;19.67;;;7.68;;
52982;SDS011;48698;45.736;13.926;2023-07-13T12:24:40;21.60;;;7.13;;
52982;SDS011;48698;45.736;13.926;2023-07-13T12:29:49;22.77;;;6.93;;
52982;SDS011;48698;45.736;13.926;2023-07-13T12:34:56;21.90;;;6.80;;
52982;SDS011;48698;45.736;13.926;2023-07-13T12:40:24;20.38;;;7.45;;
52982;SDS011;48698;45.736;13.926;2023-07-13T12:45:32;23.65;;;7.18;;
52982;SDS011;48698;45.736;13.926;2023-07-13T12:50:37;21.92;;;6.43;;
52982;SDS011;48698;45.736;13.926;2023-07-13T12:55:48;24.35;;;6.40;;
52982;SDS011;48698;45.736;13.926;2023-07-13T13:00:57;18.23;;;5.93;;
52982;SDS011;48698;45.736;13.926;2023-07-13T13:11:23;19.38;;;6.22;;
52982;SDS011;48698;45.736;13.926;2023-07-13T13:16:33;21.20;;;5.90;;
52982;SDS011;48698;45.736;13.926;2023-07-13T13:21:40;20.02;;;6.63;;
52982;SDS011;48698;45.736;13.926;2023-07-13T13:26:44;15.88;;;5.97;;
52982;SDS011;48698;45.736;13.926;2023-07-13T13:31:52;12.27;;;4.60;;
52982;SDS011;48698;45.736;13.926;2023-07-13T13:36:56;11.45;;;4.85;;
52982;SDS011;48698;45.736;13.926;2023-07-13T13:42:02;20.50;;;5.43;;
52982;SDS011;48698;45.736;13.926;2023-07-13T13:47:22;15.73;;;5.00;;
52982;SDS011;48698;45.736;13.926;2023-07-13T13:52:30;17.63;;;5.22;;
52982;SDS011;48698;45.736;13.926;2023-07-13T13:57:35;16.48;;;5.05;;
52982;SDS011;48698;45.736;13.926;2023-07-13T14:02:38;20.33;;;4.90;;
52982;SDS011;48698;45.736;13.926;2023-07-13T14:07:42;14.07;;;4.90;;
52982;SDS011;48698;45.736;13.926;2023-07-13T14:12:47;19.67;;;5.82;;
52982;SDS011;48698;45.736;13.926;2023-07-13T14:17:54;16.20;;;5.40;;
52982;SDS011;48698;45.736;13.926;2023-07-13T14:22:58;20.55;;;6.22;;
52982;SDS011;48698;45.736;13.926;2023-07-13T14:28:09;18.50;;;5.32;;
52982;SDS011;48698;45.736;13.926;2023-07-13T14:33:30;18.73;;;5.40;;
52982;SDS011;48698;45.736;13.926;2023-07-13T14:38:33;17.23;;;6.05;;
52982;SDS011;48698;45.736;13.926;2023-07-13T14:43:37;21.17;;;6.25;;
52982;SDS011;48698;45.736;13.926;2023-07-13T14:48:40;15.48;;;5.47;;
52982;SDS011;48698;45.736;13.926;2023-07-13T14:53:44;18.48;;;5.68;;
52982;SDS011;48698;45.736;13.926;2023-07-13T14:58:47;16.65;;;5.65;;
52982;SDS011;48698;45.736;13.926;2023-07-13T15:03:51;21.17;;;6.07;;
52982;SDS011;48698;45.736;13.926;2023-07-13T15:08:55;18.10;;;6.28;;
52982;SDS011;48698;45.736;13.926;2023-07-13T15:13:59;18.17;;;6.18;;
52982;SDS011;48698;45.736;13.926;2023-07-13T15:19:02;18.95;;;6.47;;
52982;SDS011;48698;45.736;13.926;2023-07-13T15:24:10;16.92;;;5.97;;
52982;SDS011;48698;45.736;13.926;2023-07-13T15:29:14;16.98;;;6.05;;
52982;SDS011;48698;45.736;13.926;2023-07-13T15:34:19;15.68;;;6.30;;
52982;SDS011;48698;45.736;13.926;2023-07-13T15:39:28;15.18;;;6.00;;
52982;SDS011;48698;45.736;13.926;2023-07-13T15:44:34;17.95;;;6.68;;
52982;SDS011;48698;45.736;13.926;2023-07-13T15:49:39;19.17;;;6.30;;
52982;SDS011;48698;45.736;13.926;2023-07-13T15:54:42;15.55;;;6.53;;
52982;SDS011;48698;45.736;13.926;2023-07-13T15:59:46;20.38;;;6.65;;
52982;SDS011;48698;45.736;13.926;2023-07-13T16:04:50;17.95;;;6.65;;
52982;SDS011;48698;45.736;13.926;2023-07-13T16:09:54;15.57;;;7.53;;
52982;SDS011;48698;45.736;13.926;2023-07-13T16:14:58;15.68;;;7.22;;
52982;SDS011;48698;45.736;13.926;2023-07-13T16:20:05;16.58;;;7.90;;
52982;SDS011;48698;45.736;13.926;2023-07-13T16:25:19;18.88;;;7.85;;
52982;SDS011;48698;45.736;13.926;2023-07-13T16:30:29;15.32;;;7.57;;
52982;SDS011;48698;45.736;13.926;2023-07-13T16:35:39;16.15;;;7.68;;
52982;SDS011;48698;45.736;13.926;2023-07-13T16:40:48;21.25;;;7.78;;
52982;SDS011;48698;45.736;13.926;2023-07-13T16:45:52;21.90;;;7.53;;
52982;SDS011;48698;45.736;13.926;2023-07-13T16:50:59;20.00;;;7.65;;
52982;SDS011;48698;45.736;13.926;2023-07-13T16:56:02;17.90;;;7.60;;
52982;SDS011;48698;45.736;13.926;2023-07-13T17:01:07;17.10;;;7.80;;
52982;SDS011;48698;45.736;13.926;2023-07-13T17:06:23;17.05;;;7.53;;
52982;SDS011;48698;45.736;13.926;2023-07-13T17:11:28;18.75;;;7.18;;
52982;SDS011;48698;45.736;13.926;2023-07-13T17:16:36;12.90;;;6.40;;
52982;SDS011;48698;45.736;13.926;2023-07-13T17:21:39;21.05;;;6.68;;
52982;SDS011;48698;45.736;13.926;2023-07-13T17:26:43;22.92;;;6.85;;
52982;SDS011;48698;45.736;13.926;2023-07-13T17:31:47;18.55;;;6.63;;
52982;SDS011;48698;45.736;13.926;2023-07-13T17:36:51;19.67;;;7.00;;
52982;SDS011;48698;45.736;13.926;2023-07-13T17:41:57;23.17;;;6.43;;
52982;SDS011;48698;45.736;13.926;2023-07-13T17:47:00;19.48;;;6.28;;
52982;SDS011;48698;45.736;13.926;2023-07-13T17:52:08;16.48;;;6.78;;
52982;SDS011;48698;45.736;13.926;2023-07-13T17:57:12;28.98;;;7.65;;
52982;SDS011;48698;45.736;13.926;2023-07-13T18:02:16;16.63;;;5.97;;
52982;SDS011;48698;45.736;13.926;2023-07-13T18:07:24;16.58;;;6.35;;
52982;SDS011;48698;45.736;13.926;2023-07-13T18:12:31;19.95;;;6.57;;
52982;SDS011;48698;45.736;13.926;2023-07-13T18:17:37;12.23;;;3.72;;
52982;SDS011;48698;45.736;13.926;2023-07-13T18:22:41;9.20;;;2.30;;
52982;SDS011;48698;45.736;13.926;2023-07-13T18:32:50;4.75;;;1.58;;
52982;SDS011;48698;45.736;13.926;2023-07-13T18:37:57;3.38;;;1.40;;
52982;SDS011;48698;45.736;13.926;2023-07-13T18:43:02;5.18;;;1.80;;
52982;SDS011;48698;45.736;13.926;2023-07-13T18:53:39;2.67;;;1.10;;
52982;SDS011;48698;45.736;13.926;2023-07-13T18:58:42;2.60;;;1.50;;
52982;SDS011;48698;45.736;13.926;2023-07-13T19:03:47;8.05;;;1.50;;
52982;SDS011;48698;45.736;13.926;2023-07-13T19:08:54;4.10;;;1.30;;
52982;SDS011;48698;45.736;13.926;2023-07-13T19:13:57;2.15;;;1.10;;
52982;SDS011;48698;45.736;13.926;2023-07-13T19:19:04;2.88;;;1.00;;
52982;SDS011;48698;45.736;13.926;2023-07-13T19:24:19;2.08;;;0.93;;
52982;SDS011;48698;45.736;13.926;2023-07-13T19:29:26;2.10;;;1.00;;
52982;SDS011;48698;45.736;13.926;2023-07-13T19:34:30;2.00;;;1.02;;
52982;SDS011;48698;45.736;13.926;2023-07-13T19:39:36;2.85;;;1.42;;
52982;SDS011;48698;45.736;13.926;2023-07-13T19:44:44;3.05;;;1.00;;
52982;SDS011;48698;45.736;13.926;2023-07-13T19:49:48;1.63;;;0.80;;
52982;SDS011;48698;45.736;13.926;2023-07-13T19:54:53;1.38;;;0.85;;
52982;SDS011;48698;45.736;13.926;2023-07-13T19:59:57;1.55;;;0.80;;
52982;SDS011;48698;45.736;13.926;2023-07-13T20:05:03;1.27;;;0.90;;
52982;SDS011;48698;45.736;13.926;2023-07-13T20:10:16;1.70;;;0.80;;
52982;SDS011;48698;45.736;13.926;2023-07-13T20:15:20;3.08;;;0.88;;
52982;SDS011;48698;45.736;13.926;2023-07-13T20:20:33;2.20;;;0.90;;
52982;SDS011;48698;45.736;13.926;2023-07-13T20:25:41;2.30;;;1.20;;
52982;SDS011;48698;45.736;13.926;2023-07-13T20:30:47;2.17;;;1.00;;
52982;SDS011;48698;45.736;13.926;2023-07-13T20:35:56;2.60;;;1.20;;
52982;SDS011;48698;45.736;13.926;2023-07-13T20:41:09;1.85;;;1.10;;
52982;SDS011;48698;45.736;13.926;2023-07-13T20:46:15;3.88;;;2.05;;
52982;SDS011;48698;45.736;13.926;2023-07-13T20:51:20;2.58;;;0.95;;
52982;SDS011;48698;45.736;13.926;2023-07-13T20:56:27;2.08;;;1.08;;
52982;SDS011;48698;45.736;13.926;2023-07-13T21:01:34;1.30;;;0.90;;
52982;SDS011;48698;45.736;13.926;2023-07-13T21:06:40;4.05;;;1.17;;
52982;SDS011;48698;45.736;13.926;2023-07-13T21:11:44;2.30;;;0.98;;
52982;SDS011;48698;45.736;13.926;2023-07-13T21:16:48;6.10;;;1.20;;
52982;SDS011;48698;45.736;13.926;2023-07-13T21:21:53;3.70;;;1.23;;
52982;SDS011;48698;45.736;13.926;2023-07-13T21:26:56;1.23;;;0.90;;
52982;SDS011;48698;45.736;13.926;2023-07-13T21:32:02;1.33;;;0.93;;
52982;SDS011;48698;45.736;13.926;2023-07-13T21:37:08;0.98;;;0.73;;
52982;SDS011;48698;45.736;13.926;2023-07-13T21:42:19;2.88;;;0.80;;
52982;SDS011;48698;45.736;13.926;2023-07-13T21:47:23;1.27;;;0.93;;
52982;SDS011;48698;45.736;13.926;2023-07-13T21:52:26;2.70;;;1.00;;
52982;SDS011;48698;45.736;13.926;2023-07-13T21:57:30;1.65;;;0.88;;
52982;SDS011;48698;45.736;13.926;2023-07-13T22:02:33;1.73;;;0.88;;
52982;SDS011;48698;45.736;13.926;2023-07-13T22:07:37;1.90;;;0.70;;
52982;SDS011;48698;45.736;13.926;2023-07-13T22:12:40;0.82;;;0.60;;
52982;SDS011;48698;45.736;13.926;2023-07-13T22:22:51;0.80;;;0.57;;
52982;SDS011;48698;45.736;13.926;2023-07-13T22:27:55;2.47;;;0.50;;
52982;SDS011;48698;45.736;13.926;2023-07-13T22:33:11;0.40;;;0.40;;
52982;SDS011;48698;45.736;13.926;2023-07-13T22:38:19;0.73;;;0.60;;
52982;SDS011;48698;45.736;13.926;2023-07-13T22:43:25;0.40;;;0.40;;
52982;SDS011;48698;45.736;13.926;2023-07-13T22:48:39;0.50;;;0.50;;
52982;SDS011;48698;45.736;13.926;2023-07-13T22:53:47;0.50;;;0.40;;
52982;SDS011;48698;45.736;13.926;2023-07-13T22:58:50;1.50;;;0.50;;
52982;SDS011;48698;45.736;13.926;2023-07-13T23:03:54;0.77;;;0.50;;
52982;SDS011;48698;45.736;13.926;2023-07-13T23:09:01;0.35;;;0.35;;
52982;SDS011;48698;45.736;13.926;2023-07-13T23:14:06;2.35;;;0.60;;
52982;SDS011;48698;45.736;13.926;2023-07-13T23:24:33;0.53;;;0.40;;
52982;SDS011;48698;45.736;13.926;2023-07-13T23:29:38;0.45;;;0.40;;
52982;SDS011;48698;45.736;13.926;2023-07-13T23:39:46;0.55;;;0.30;;
52982;SDS011;48698;45.736;13.926;2023-07-13T23:44:49;3.58;;;0.45;;
52982;SDS011;48698;45.736;13.926;2023-07-13T23:49:53;2.05;;;0.57;;
52982;SDS011;48698;45.736;13.926;2023-07-13T23:54:58;1.42;;;0.50;;
